sensor_id;sensor_type;location;lat;lon;timestamp;pressure;altitude;pressure_sealevel;temperature;humidity
10646;BME280;5371;49.782;9.932;2023-01-15T00:01:35;98238.22;;;9.28;100.00
10646;BME280;5371;49.782;9.932;2023-01-15T00:04:05;98238.56;;;9.23;100.00
10646;BME280;5371;49.782;9.932;2023-01-15T00:06:35;98223.28;;;9.30;100.00
10646;BME280;5371;49.782;9.932;2023-01-15T00:09:03;98228.03;;;9.36;100.00
10646;BME280;5371;49.782;9.932;2023-01-15T00:11:30;98221.63;;;9.40;100.00
10646;BME280;5371;49.782;9.932;2023-01-15T00:13:57;98222.00;;;9.35;100.00
10646;BME280;5371;49.782;9.932;2023-01-15T00:16:25;98205.28;;;9.27;100.00
10646;BME280;5371;49.782;9.932;2023-01-15T00:18:53;98200.19;;;9.36;100.00
10646;BME280;5371;49.782;9.932;2023-01-15T00:21:22;98205.41;;;9.36;100.00
10646;BME280;5371;49.782;9.932;2023-01-15T00:23:50;98204.81;;;9.44;100.00
10646;BME280;5371;49.782;9.932;2023-01-15T00:26:35;98199.72;;;9.43;100.00
10646;BME280;5371;49.782;9.932;2023-01-15T00:29:21;98204.44;;;9.49;100.00
10646;BME280;5371;49.782;9.932;2023-01-15T00:31:54;98201.38;;;9.44;100.00
10646;BME280;5371;49.782;9.932;2023-01-15T00:34:22;98199.00;;;9.52;100.00
10646;BME280;5371;49.782;9.932;2023-01-15T00:36:50;98192.34;;;9.59;100.00
10646;BME280;5371;49.782;9.932;2023-01-15T00:39:17;98188.06;;;9.58;100.00
10646;BME280;5371;49.782;9.932;2023-01-15T00:41:46;98199.22;;;9.60;100.00
10646;BME280;5371;49.782;9.932;2023-01-15T00:44:14;98187.50;;;9.54;100.00
10646;BME280;5371;49.782;9.932;2023-01-15T00:46:41;98186.19;;;9.60;100.00
10646;BME280;5371;49.782;9.932;2023-01-15T00:49:08;98185.13;;;9.62;100.00
10646;BME280;5371;49.782;9.932;2023-01-15T00:51:35;98188.91;;;9.58;100.00
10646;BME280;5371;49.782;9.932;2023-01-15T00:54:04;98173.03;;;9.61;100.00
10646;BME280;5371;49.782;9.932;2023-01-15T00:56:31;98173.84;;;9.62;100.00
10646;BME280;5371;49.782;9.932;2023-01-15T00:59:00;98172.19;;;9.61;100.00
10646;BME280;5371;49.782;9.932;2023-01-15T01:01:27;98174.19;;;9.57;100.00
10646;BME280;5371;49.782;9.932;2023-01-15T01:03:54;98172.78;;;9.64;100.00
10646;BME280;5371;49.782;9.932;2023-01-15T01:06:22;98166.16;;;9.60;100.00
10646;BME280;5371;49.782;9.932;2023-01-15T01:08:49;98159.03;;;9.62;100.00
10646;BME280;5371;49.782;9.932;2023-01-15T01:11:22;98159.03;;;9.62;100.00
10646;BME280;5371;49.782;9.932;2023-01-15T01:13:52;98152.28;;;9.49;100.00
10646;BME280;5371;49.782;9.932;2023-01-15T01:16:22;98152.78;;;9.54;100.00
10646;BME280;5371;49.782;9.932;2023-01-15T01:18:50;98146.47;;;9.56;100.00
10646;BME280;5371;49.782;9.932;2023-01-15T01:21:17;98143.38;;;9.62;100.00
10646;BME280;5371;49.782;9.932;2023-01-15T01:23:44;98150.50;;;9.60;100.00
10646;BME280;5371;49.782;9.932;2023-01-15T01:26:11;98152.50;;;9.57;100.00
10646;BME280;5371;49.782;9.932;2023-01-15T01:28:40;98141.97;;;9.58;100.00
10646;BME280;5371;49.782;9.932;2023-01-15T01:31:08;98147.78;;;9.62;100.00
10646;BME280;5371;49.782;9.932;2023-01-15T01:33:35;98141.50;;;9.64;100.00
10646;BME280;5371;49.782;9.932;2023-01-15T01:36:02;98134.63;;;9.63;100.00
10646;BME280;5371;49.782;9.932;2023-01-15T01:38:29;98125.47;;;9.58;100.00
10646;BME280;5371;49.782;9.932;2023-01-15T01:40:56;98124.31;;;9.51;100.00
10646;BME280;5371;49.782;9.932;2023-01-15T01:43:24;98127.25;;;9.57;100.00
10646;BME280;5371;49.782;9.932;2023-01-15T01:45:53;98127.41;;;9.56;100.00
10646;BME280;5371;49.782;9.932;2023-01-15T01:48:24;98129.03;;;9.57;100.00
10646;BME280;5371;49.782;9.932;2023-01-15T01:50:53;98126.44;;;9.57;100.00
10646;BME280;5371;49.782;9.932;2023-01-15T01:53:24;98121.47;;;9.54;100.00
10646;BME280;5371;49.782;9.932;2023-01-15T01:55:54;98125.97;;;9.52;100.00
10646;BME280;5371;49.782;9.932;2023-01-15T01:58:24;98118.38;;;9.60;100.00
10646;BME280;5371;49.782;9.932;2023-01-15T02:00:54;98108.16;;;9.57;100.00
10646;BME280;5371;49.782;9.932;2023-01-15T02:03:25;98106.56;;;9.45;100.00
10646;BME280;5371;49.782;9.932;2023-01-15T02:05:57;98102.16;;;9.34;100.00
10646;BME280;5371;49.782;9.932;2023-01-15T02:08:27;98093.28;;;9.36;100.00
10646;BME280;5371;49.782;9.932;2023-01-15T02:10:55;98093.63;;;9.32;100.00
10646;BME280;5371;49.782;9.932;2023-01-15T02:13:34;98081.31;;;9.34;100.00
10646;BME280;5371;49.782;9.932;2023-01-15T02:16:07;98085.97;;;9.19;100.00
10646;BME280;5371;49.782;9.932;2023-01-15T02:18:42;98085.25;;;9.17;100.00
10646;BME280;5371;49.782;9.932;2023-01-15T02:21:17;98073.50;;;9.23;100.00
10646;BME280;5371;49.782;9.932;2023-01-15T02:24:09;98075.16;;;9.24;100.00
10646;BME280;5371;49.782;9.932;2023-01-15T02:29:44;98070.06;;;9.22;100.00
10646;BME280;5371;49.782;9.932;2023-01-15T02:32:17;98065.44;;;9.26;100.00
10646;BME280;5371;49.782;9.932;2023-01-15T02:34:49;98075.53;;;9.19;100.00
10646;BME280;5371;49.782;9.932;2023-01-15T02:37:22;98068.28;;;9.23;100.00
10646;BME280;5371;49.782;9.932;2023-01-15T02:39:52;98064.03;;;9.22;100.00
10646;BME280;5371;49.782;9.932;2023-01-15T02:42:26;98071.72;;;9.23;100.00
10646;BME280;5371;49.782;9.932;2023-01-15T02:44:55;98078.94;;;9.20;100.00
10646;BME280;5371;49.782;9.932;2023-01-15T02:47:26;98075.88;;;9.26;100.00
10646;BME280;5371;49.782;9.932;2023-01-15T02:49:59;98068.88;;;9.26;100.00
10646;BME280;5371;49.782;9.932;2023-01-15T02:52:39;98072.31;;;9.16;100.00
10646;BME280;5371;49.782;9.932;2023-01-15T02:55:13;98065.09;;;9.19;100.00
10646;BME280;5371;49.782;9.932;2023-01-15T02:57:46;98060.59;;;9.21;100.00
10646;BME280;5371;49.782;9.932;2023-01-15T03:00:18;98058.09;;;9.20;100.00
10646;BME280;5371;49.782;9.932;2023-01-15T03:02:50;98066.06;;;9.18;100.00
10646;BME280;5371;49.782;9.932;2023-01-15T03:05:21;98058.09;;;9.20;100.00
10646;BME280;5371;49.782;9.932;2023-01-15T03:07:52;98055.13;;;9.24;100.00
10646;BME280;5371;49.782;9.932;2023-01-15T03:10:26;98052.06;;;9.19;100.00
10646;BME280;5371;49.782;9.932;2023-01-15T03:13:00;98050.16;;;9.21;100.00
10646;BME280;5371;49.782;9.932;2023-01-15T03:15:43;98044.25;;;9.19;100.00
10646;BME280;5371;49.782;9.932;2023-01-15T03:18:35;98046.59;;;9.22;100.00
10646;BME280;5371;49.782;9.932;2023-01-15T03:21:05;98044.72;;;9.24;100.00
10646;BME280;5371;49.782;9.932;2023-01-15T03:23:37;98037.84;;;9.23;100.00
10646;BME280;5371;49.782;9.932;2023-01-15T03:26:05;98040.44;;;9.34;100.00
10646;BME280;5371;49.782;9.932;2023-01-15T03:28:39;98034.50;;;9.32;100.00
10646;BME280;5371;49.782;9.932;2023-01-15T03:31:06;98027.19;;;9.26;100.00
10646;BME280;5371;49.782;9.932;2023-01-15T03:33:34;98030.63;;;9.27;100.00
10646;BME280;5371;49.782;9.932;2023-01-15T03:36:03;98021.97;;;9.26;100.00
10646;BME280;5371;49.782;9.932;2023-01-15T03:38:40;98024.09;;;9.21;100.00
10646;BME280;5371;49.782;9.932;2023-01-15T03:41:18;98026.47;;;9.13;100.00
10646;BME280;5371;49.782;9.932;2023-01-15T03:44:01;98030.50;;;9.28;100.00
10646;BME280;5371;49.782;9.932;2023-01-15T03:46:44;98025.34;;;9.38;100.00
10646;BME280;5371;49.782;9.932;2023-01-15T03:49:19;98032.84;;;9.31;100.00
10646;BME280;5371;49.782;9.932;2023-01-15T03:51:56;98032.13;;;9.29;100.00
10646;BME280;5371;49.782;9.932;2023-01-15T03:54:32;98027.38;;;9.34;100.00
10646;BME280;5371;49.782;9.932;2023-01-15T03:57:06;98019.25;;;9.28;100.00
10646;BME280;5371;49.782;9.932;2023-01-15T03:59:41;98033.56;;;9.33;100.00
10646;BME280;5371;49.782;9.932;2023-01-15T04:02:12;98027.63;;;9.31;100.00
10646;BME280;5371;49.782;9.932;2023-01-15T04:04:41;98025.50;;;9.25;100.00
10646;BME280;5371;49.782;9.932;2023-01-15T04:07:09;98020.41;;;9.35;100.00
10646;BME280;5371;49.782;9.932;2023-01-15T04:09:37;98014.34;;;9.34;100.00
10646;BME280;5371;49.782;9.932;2023-01-15T04:12:06;98012.81;;;9.32;100.00
10646;BME280;5371;49.782;9.932;2023-01-15T04:14:40;98012.94;;;9.30;100.00
10646;BME280;5371;49.782;9.932;2023-01-15T04:17:11;98022.41;;;9.31;100.00
10646;BME280;5371;49.782;9.932;2023-01-15T04:19:38;98026.44;;;9.35;100.00
10646;BME280;5371;49.782;9.932;2023-01-15T04:22:08;98050.63;;;9.37;100.00
10646;BME280;5371;49.782;9.932;2023-01-15T04:24:36;98049.81;;;9.26;100.00
10646;BME280;5371;49.782;9.932;2023-01-15T04:27:03;98049.00;;;9.14;100.00
10646;BME280;5371;49.782;9.932;2023-01-15T04:29:29;98060.38;;;8.91;100.00
10646;BME280;5371;49.782;9.932;2023-01-15T04:31:58;98063.69;;;8.82;100.00
10646;BME280;5371;49.782;9.932;2023-01-15T04:34:25;98076.94;;;8.79;100.00
10646;BME280;5371;49.782;9.932;2023-01-15T04:36:52;98088.53;;;8.75;100.00
10646;BME280;5371;49.782;9.932;2023-01-15T04:39:19;98087.13;;;8.71;100.00
10646;BME280;5371;49.782;9.932;2023-01-15T04:41:46;98094.69;;;8.62;100.00
10646;BME280;5371;49.782;9.932;2023-01-15T04:44:31;98122.84;;;8.22;100.00
10646;BME280;5371;49.782;9.932;2023-01-15T04:47:00;98135.38;;;7.94;100.00
10646;BME280;5371;49.782;9.932;2023-01-15T04:49:27;98131.09;;;7.93;100.00
10646;BME280;5371;49.782;9.932;2023-01-15T04:51:54;98134.72;;;7.79;100.00
10646;BME280;5371;49.782;9.932;2023-01-15T04:54:21;98146.69;;;7.69;100.00
10646;BME280;5371;49.782;9.932;2023-01-15T04:56:53;98150.41;;;7.54;100.00
10646;BME280;5371;49.782;9.932;2023-01-15T04:59:21;98146.13;;;7.53;100.00
10646;BME280;5371;49.782;9.932;2023-01-15T05:01:49;98158.50;;;7.49;100.00
10646;BME280;5371;49.782;9.932;2023-01-15T05:04:19;98156.13;;;7.46;100.00
10646;BME280;5371;49.782;9.932;2023-01-15T05:06:45;98146.88;;;7.55;100.00
10646;BME280;5371;49.782;9.932;2023-01-15T05:09:12;98164.13;;;7.43;100.00
10646;BME280;5371;49.782;9.932;2023-01-15T05:11:39;98167.75;;;7.53;100.00
10646;BME280;5371;49.782;9.932;2023-01-15T05:14:07;98171.59;;;7.47;100.00
10646;BME280;5371;49.782;9.932;2023-01-15T05:16:34;98166.88;;;7.03;100.00
10646;BME280;5371;49.782;9.932;2023-01-15T05:19:03;98164.38;;;7.27;100.00
10646;BME280;5371;49.782;9.932;2023-01-15T05:21:34;98167.56;;;7.43;100.00
10646;BME280;5371;49.782;9.932;2023-01-15T05:24:05;98166.06;;;7.16;100.00
10646;BME280;5371;49.782;9.932;2023-01-15T05:26:34;98177.88;;;7.20;100.00
10646;BME280;5371;49.782;9.932;2023-01-15T05:29:01;98178.31;;;7.13;100.00
10646;BME280;5371;49.782;9.932;2023-01-15T05:31:29;98183.41;;;7.28;100.00
10646;BME280;5371;49.782;9.932;2023-01-15T05:33:58;98180.38;;;7.34;100.00
10646;BME280;5371;49.782;9.932;2023-01-15T05:36:28;98180.47;;;7.20;100.00
10646;BME280;5371;49.782;9.932;2023-01-15T05:38:58;98181.50;;;7.30;100.00
10646;BME280;5371;49.782;9.932;2023-01-15T05:41:26;98191.41;;;7.25;100.00
10646;BME280;5371;49.782;9.932;2023-01-15T05:44:10;98218.53;;;7.21;100.00
10646;BME280;5371;49.782;9.932;2023-01-15T05:46:39;98209.38;;;7.15;100.00
10646;BME280;5371;49.782;9.932;2023-01-15T05:49:09;98202.13;;;7.07;100.00
10646;BME280;5371;49.782;9.932;2023-01-15T05:51:36;98205.09;;;7.01;100.00
10646;BME280;5371;49.782;9.932;2023-01-15T05:54:07;98211.75;;;6.93;100.00
10646;BME280;5371;49.782;9.932;2023-01-15T05:56:34;98203.84;;;6.69;100.00
10646;BME280;5371;49.782;9.932;2023-01-15T05:59:02;98207.06;;;6.60;100.00
10646;BME280;5371;49.782;9.932;2023-01-15T06:01:29;98202.50;;;6.24;100.00
10646;BME280;5371;49.782;9.932;2023-01-15T06:03:57;98207.09;;;6.33;100.00
10646;BME280;5371;49.782;9.932;2023-01-15T06:06:25;98211.19;;;6.50;100.00
10646;BME280;5371;49.782;9.932;2023-01-15T06:08:52;98248.50;;;6.34;100.00
10646;BME280;5371;49.782;9.932;2023-01-15T06:11:20;98243.56;;;6.17;100.00
10646;BME280;5371;49.782;9.932;2023-01-15T06:13:47;98241.59;;;6.21;100.00
10646;BME280;5371;49.782;9.932;2023-01-15T06:16:14;98251.97;;;6.48;100.00
10646;BME280;5371;49.782;9.932;2023-01-15T06:18:43;98261.50;;;6.47;100.00
10646;BME280;5371;49.782;9.932;2023-01-15T06:21:11;98266.13;;;6.56;100.00
10646;BME280;5371;49.782;9.932;2023-01-15T06:23:39;98264.00;;;6.49;100.00
10646;BME280;5371;49.782;9.932;2023-01-15T06:26:09;98256.28;;;6.34;100.00
10646;BME280;5371;49.782;9.932;2023-01-15T06:28:37;98272.03;;;6.46;100.00
10646;BME280;5371;49.782;9.932;2023-01-15T06:31:05;98274.22;;;6.25;100.00
10646;BME280;5371;49.782;9.932;2023-01-15T06:33:33;98278.16;;;6.30;100.00
10646;BME280;5371;49.782;9.932;2023-01-15T06:36:02;98272.25;;;6.28;100.00
10646;BME280;5371;49.782;9.932;2023-01-15T06:38:30;98282.00;;;6.11;100.00
10646;BME280;5371;49.782;9.932;2023-01-15T06:40:58;98291.94;;;6.04;100.00
10646;BME280;5371;49.782;9.932;2023-01-15T06:43:25;98300.22;;;5.96;100.00
10646;BME280;5371;49.782;9.932;2023-01-15T06:46:11;98295.81;;;6.11;100.00
10646;BME280;5371;49.782;9.932;2023-01-15T06:48:56;98290.31;;;5.89;100.00
10646;BME280;5371;49.782;9.932;2023-01-15T06:51:23;98298.81;;;6.05;100.00
10646;BME280;5371;49.782;9.932;2023-01-15T06:53:50;98304.56;;;5.96;100.00
10646;BME280;5371;49.782;9.932;2023-01-15T06:56:17;98316.78;;;6.08;100.00
10646;BME280;5371;49.782;9.932;2023-01-15T06:58:44;98335.69;;;5.96;100.00
10646;BME280;5371;49.782;9.932;2023-01-15T07:01:14;98340.97;;;5.94;100.00
10646;BME280;5371;49.782;9.932;2023-01-15T07:03:41;98363.44;;;5.80;100.00
10646;BME280;5371;49.782;9.932;2023-01-15T07:06:10;98372.56;;;5.57;100.00
10646;BME280;5371;49.782;9.932;2023-01-15T07:08:38;98380.97;;;5.46;100.00
10646;BME280;5371;49.782;9.932;2023-01-15T07:11:07;98388.41;;;5.67;100.00
10646;BME280;5371;49.782;9.932;2023-01-15T07:13:34;98399.94;;;5.47;100.00
10646;BME280;5371;49.782;9.932;2023-01-15T07:16:02;98399.88;;;5.48;100.00
10646;BME280;5371;49.782;9.932;2023-01-15T07:18:32;98413.22;;;5.56;100.00
10646;BME280;5371;49.782;9.932;2023-01-15T07:20:59;98411.97;;;5.34;100.00
10646;BME280;5371;49.782;9.932;2023-01-15T07:23:26;98408.69;;;5.30;100.00
10646;BME280;5371;49.782;9.932;2023-01-15T07:25:54;98404.50;;;5.57;100.00
10646;BME280;5371;49.782;9.932;2023-01-15T07:28:21;98400.81;;;5.61;100.00
10646;BME280;5371;49.782;9.932;2023-01-15T07:30:49;98404.16;;;5.63;100.00
10646;BME280;5371;49.782;9.932;2023-01-15T07:33:16;98420.41;;;5.21;100.00
10646;BME280;5371;49.782;9.932;2023-01-15T07:35:44;98435.91;;;5.37;100.00
10646;BME280;5371;49.782;9.932;2023-01-15T07:38:11;98431.31;;;5.42;100.00
10646;BME280;5371;49.782;9.932;2023-01-15T07:40:38;98418.94;;;5.02;100.00
10646;BME280;5371;49.782;9.932;2023-01-15T07:43:05;98426.63;;;5.19;100.00
10646;BME280;5371;49.782;9.932;2023-01-15T07:45:49;98431.69;;;5.20;100.00
10646;BME280;5371;49.782;9.932;2023-01-15T07:48:34;98437.94;;;4.86;100.00
10646;BME280;5371;49.782;9.932;2023-01-15T07:51:20;98444.13;;;4.53;100.00
10646;BME280;5371;49.782;9.932;2023-01-15T07:53:47;98445.03;;;4.67;100.00
10646;BME280;5371;49.782;9.932;2023-01-15T07:56:14;98442.94;;;5.05;100.00
10646;BME280;5371;49.782;9.932;2023-01-15T07:58:41;98448.28;;;5.18;100.00
10646;BME280;5371;49.782;9.932;2023-01-15T08:01:13;98456.41;;;4.96;100.00
10646;BME280;5371;49.782;9.932;2023-01-15T08:03:40;98468.66;;;5.24;100.00
10646;BME280;5371;49.782;9.932;2023-01-15T08:06:07;98470.19;;;4.97;100.00
10646;BME280;5371;49.782;9.932;2023-01-15T08:08:35;98449.44;;;4.49;100.00
10646;BME280;5371;49.782;9.932;2023-01-15T08:11:02;98453.25;;;4.91;100.00
10646;BME280;5371;49.782;9.932;2023-01-15T08:13:47;98457.97;;;4.67;100.00
10646;BME280;5371;49.782;9.932;2023-01-15T08:16:34;98467.94;;;4.91;100.00
10646;BME280;5371;49.782;9.932;2023-01-15T08:19:01;98465.41;;;5.05;100.00
10646;BME280;5371;49.782;9.932;2023-01-15T08:21:28;98460.31;;;4.56;100.00
10646;BME280;5371;49.782;9.932;2023-01-15T08:23:56;98459.56;;;5.01;100.00
10646;BME280;5371;49.782;9.932;2023-01-15T08:26:23;98467.13;;;4.26;100.00
10646;BME280;5371;49.782;9.932;2023-01-15T08:28:50;98464.94;;;4.82;100.00
10646;BME280;5371;49.782;9.932;2023-01-15T08:31:17;98467.19;;;4.88;100.00
10646;BME280;5371;49.782;9.932;2023-01-15T08:33:44;98480.44;;;4.51;100.00
10646;BME280;5371;49.782;9.932;2023-01-15T08:36:11;98486.94;;;4.42;100.00
10646;BME280;5371;49.782;9.932;2023-01-15T08:38:38;98485.56;;;5.00;100.00
10646;BME280;5371;49.782;9.932;2023-01-15T08:41:06;98490.44;;;5.20;100.00
10646;BME280;5371;49.782;9.932;2023-01-15T08:43:33;98482.16;;;5.29;100.00
10646;BME280;5371;49.782;9.932;2023-01-15T08:46:02;98487.84;;;5.36;100.00
10646;BME280;5371;49.782;9.932;2023-01-15T08:48:30;98491.97;;;5.24;100.00
10646;BME280;5371;49.782;9.932;2023-01-15T08:50:58;98500.22;;;5.31;100.00
10646;BME280;5371;49.782;9.932;2023-01-15T08:53:28;98496.28;;;5.39;100.00
10646;BME280;5371;49.782;9.932;2023-01-15T08:55:55;98510.50;;;5.32;100.00
10646;BME280;5371;49.782;9.932;2023-01-15T08:58:26;98523.19;;;5.21;100.00
10646;BME280;5371;49.782;9.932;2023-01-15T09:00:53;98521.09;;;5.43;100.00
10646;BME280;5371;49.782;9.932;2023-01-15T09:03:20;98523.75;;;5.57;100.00
10646;BME280;5371;49.782;9.932;2023-01-15T09:05:47;98534.09;;;5.57;100.00
10646;BME280;5371;49.782;9.932;2023-01-15T09:08:14;98519.94;;;5.02;100.00
10646;BME280;5371;49.782;9.932;2023-01-15T09:10:41;98522.03;;;4.79;100.00
10646;BME280;5371;49.782;9.932;2023-01-15T09:13:07;98526.97;;;4.35;100.00
10646;BME280;5371;49.782;9.932;2023-01-15T09:15:36;98517.53;;;4.99;100.00
10646;BME280;5371;49.782;9.932;2023-01-15T09:18:03;98528.97;;;5.10;100.00
10646;BME280;5371;49.782;9.932;2023-01-15T09:20:30;98530.38;;;5.32;100.00
10646;BME280;5371;49.782;9.932;2023-01-15T09:22:57;98538.66;;;5.22;100.00
10646;BME280;5371;49.782;9.932;2023-01-15T09:25:23;98547.19;;;4.93;100.00
10646;BME280;5371;49.782;9.932;2023-01-15T09:27:54;98550.16;;;4.54;100.00
10646;BME280;5371;49.782;9.932;2023-01-15T09:30:21;98549.19;;;4.72;100.00
10646;BME280;5371;49.782;9.932;2023-01-15T09:32:50;98562.41;;;4.99;100.00
10646;BME280;5371;49.782;9.932;2023-01-15T09:35:17;98569.34;;;4.33;100.00
10646;BME280;5371;49.782;9.932;2023-01-15T09:37:49;98559.75;;;5.01;100.00
10646;BME280;5371;49.782;9.932;2023-01-15T09:40:28;98560.06;;;5.10;100.00
10646;BME280;5371;49.782;9.932;2023-01-15T09:43:03;98564.25;;;4.31;100.00
10646;BME280;5371;49.782;9.932;2023-01-15T09:45:36;98570.03;;;4.36;100.00
10646;BME280;5371;49.782;9.932;2023-01-15T09:48:21;98572.91;;;4.30;100.00
10646;BME280;5371;49.782;9.932;2023-01-15T09:51:01;98576.03;;;4.20;100.00
10646;BME280;5371;49.782;9.932;2023-01-15T09:54:00;98584.03;;;4.65;100.00
10646;BME280;5371;49.782;9.932;2023-01-15T09:56:31;98575.16;;;4.86;100.00
10646;BME280;5371;49.782;9.932;2023-01-15T09:59:04;98576.28;;;4.98;100.00
10646;BME280;5371;49.782;9.932;2023-01-15T10:01:35;98576.13;;;5.33;100.00
10646;BME280;5371;49.782;9.932;2023-01-15T10:04:08;98569.06;;;5.50;100.00
10646;BME280;5371;49.782;9.932;2023-01-15T10:06:43;98579.94;;;5.57;100.00
10646;BME280;5371;49.782;9.932;2023-01-15T10:09:14;98592.47;;;5.64;100.00
10646;BME280;5371;49.782;9.932;2023-01-15T10:11:45;98597.31;;;5.71;100.00
10646;BME280;5371;49.782;9.932;2023-01-15T10:14:34;98597.47;;;5.68;100.00
10646;BME280;5371;49.782;9.932;2023-01-15T10:17:20;98610.28;;;5.08;100.00
10646;BME280;5371;49.782;9.932;2023-01-15T10:19:50;98627.00;;;5.34;100.00
10646;BME280;5371;49.782;9.932;2023-01-15T10:22:40;98611.06;;;5.25;100.00
10646;BME280;5371;49.782;9.932;2023-01-15T10:25:14;98616.06;;;5.44;100.00
10646;BME280;5371;49.782;9.932;2023-01-15T10:27:45;98605.72;;;5.44;100.00
10646;BME280;5371;49.782;9.932;2023-01-15T10:30:15;98620.72;;;5.69;100.00
10646;BME280;5371;49.782;9.932;2023-01-15T10:32:44;98626.09;;;5.82;100.00
10646;BME280;5371;49.782;9.932;2023-01-15T10:35:26;98624.16;;;5.70;100.00
10646;BME280;5371;49.782;9.932;2023-01-15T10:38:01;98631.28;;;5.19;100.00
10646;BME280;5371;49.782;9.932;2023-01-15T10:40:42;98638.56;;;4.62;100.00
10646;BME280;5371;49.782;9.932;2023-01-15T10:43:17;98635.56;;;5.03;100.00
10646;BME280;5371;49.782;9.932;2023-01-15T10:45:48;98642.97;;;4.93;100.00
10646;BME280;5371;49.782;9.932;2023-01-15T10:48:23;98635.69;;;5.33;100.00
10646;BME280;5371;49.782;9.932;2023-01-15T10:50:54;98643.25;;;5.04;100.00
10646;BME280;5371;49.782;9.932;2023-01-15T10:53:28;98631.09;;;5.22;100.00
10646;BME280;5371;49.782;9.932;2023-01-15T10:56:00;98629.44;;;4.55;100.00
10646;BME280;5371;49.782;9.932;2023-01-15T10:58:34;98640.94;;;5.15;100.00
10646;BME280;5371;49.782;9.932;2023-01-15T11:01:04;98636.66;;;4.99;100.00
10646;BME280;5371;49.782;9.932;2023-01-15T11:03:35;98626.25;;;5.16;100.00
10646;BME280;5371;49.782;9.932;2023-01-15T11:06:06;98622.66;;;5.34;100.00
10646;BME280;5371;49.782;9.932;2023-01-15T11:08:39;98637.38;;;5.34;100.00
10646;BME280;5371;49.782;9.932;2023-01-15T11:11:17;98648.25;;;5.40;100.00
10646;BME280;5371;49.782;9.932;2023-01-15T11:13:51;98660.19;;;5.27;100.00
10646;BME280;5371;49.782;9.932;2023-01-15T11:16:37;98663.84;;;5.23;100.00
10646;BME280;5371;49.782;9.932;2023-01-15T11:19:27;98669.75;;;4.76;100.00
10646;BME280;5371;49.782;9.932;2023-01-15T11:22:14;98672.34;;;4.76;100.00
10646;BME280;5371;49.782;9.932;2023-01-15T11:24:47;98690.41;;;4.43;100.00
10646;BME280;5371;49.782;9.932;2023-01-15T11:27:17;98682.38;;;3.96;100.00
10646;BME280;5371;49.782;9.932;2023-01-15T11:29:50;98667.00;;;3.93;100.00
10646;BME280;5371;49.782;9.932;2023-01-15T11:32:22;98685.13;;;3.37;100.00
10646;BME280;5371;49.782;9.932;2023-01-15T11:34:53;98679.63;;;3.45;100.00
10646;BME280;5371;49.782;9.932;2023-01-15T11:37:22;98678.88;;;3.43;100.00
10646;BME280;5371;49.782;9.932;2023-01-15T11:39:54;98697.97;;;3.57;100.00
10646;BME280;5371;49.782;9.932;2023-01-15T11:42:21;98696.94;;;3.80;100.00
10646;BME280;5371;49.782;9.932;2023-01-15T11:45:14;98715.38;;;3.54;100.00
10646;BME280;5371;49.782;9.932;2023-01-15T11:47:59;98691.56;;;3.66;100.00
10646;BME280;5371;49.782;9.932;2023-01-15T11:50:51;98675.22;;;3.47;100.00
10646;BME280;5371;49.782;9.932;2023-01-15T11:53:21;98664.56;;;3.54;100.00
10646;BME280;5371;49.782;9.932;2023-01-15T11:55:52;98659.03;;;3.43;100.00
10646;BME280;5371;49.782;9.932;2023-01-15T11:58:20;98657.06;;;3.67;100.00
10646;BME280;5371;49.782;9.932;2023-01-15T12:00:50;98652.75;;;3.85;100.00
10646;BME280;5371;49.782;9.932;2023-01-15T12:03:20;98667.44;;;3.84;100.00
10646;BME280;5371;49.782;9.932;2023-01-15T12:05:54;98666.81;;;4.15;100.00
10646;BME280;5371;49.782;9.932;2023-01-15T12:08:31;98671.44;;;4.08;100.00
10646;BME280;5371;49.782;9.932;2023-01-15T12:11:06;98663.19;;;4.36;100.00
10646;BME280;5371;49.782;9.932;2023-01-15T12:13:45;98667.75;;;3.95;100.00
10646;BME280;5371;49.782;9.932;2023-01-15T12:16:25;98668.31;;;4.19;100.00
10646;BME280;5371;49.782;9.932;2023-01-15T12:18:57;98656.00;;;4.07;100.00
10646;BME280;5371;49.782;9.932;2023-01-15T12:21:39;98673.75;;;4.32;100.00
10646;BME280;5371;49.782;9.932;2023-01-15T12:24:44;98670.81;;;4.03;100.00
10646;BME280;5371;49.782;9.932;2023-01-15T12:27:33;98684.22;;;4.11;100.00
10646;BME280;5371;49.782;9.932;2023-01-15T12:30:04;98678.78;;;4.35;100.00
10646;BME280;5371;49.782;9.932;2023-01-15T12:32:39;98680.28;;;4.56;100.00
10646;BME280;5371;49.782;9.932;2023-01-15T12:35:16;98679.75;;;4.49;100.00
10646;BME280;5371;49.782;9.932;2023-01-15T12:37:51;98673.03;;;4.11;100.00
10646;BME280;5371;49.782;9.932;2023-01-15T12:40:25;98671.13;;;4.14;100.00
10646;BME280;5371;49.782;9.932;2023-01-15T12:42:54;98679.66;;;4.17;100.00
10646;BME280;5371;49.782;9.932;2023-01-15T12:45:42;98687.19;;;4.56;100.00
10646;BME280;5371;49.782;9.932;2023-01-15T12:48:15;98687.22;;;4.73;100.00
10646;BME280;5371;49.782;9.932;2023-01-15T12:50:45;98681.03;;;4.24;100.00
10646;BME280;5371;49.782;9.932;2023-01-15T12:53:16;98691.00;;;4.66;100.00
10646;BME280;5371;49.782;9.932;2023-01-15T12:55:50;98700.38;;;4.68;100.00
10646;BME280;5371;49.782;9.932;2023-01-15T12:58:31;98710.66;;;4.70;100.00
10646;BME280;5371;49.782;9.932;2023-01-15T13:01:05;98725.06;;;4.22;100.00
10646;BME280;5371;49.782;9.932;2023-01-15T13:03:47;98717.19;;;4.77;100.00
10646;BME280;5371;49.782;9.932;2023-01-15T13:06:16;98716.66;;;4.70;100.00
10646;BME280;5371;49.782;9.932;2023-01-15T13:08:49;98726.50;;;4.64;100.00
10646;BME280;5371;49.782;9.932;2023-01-15T13:11:22;98722.69;;;4.54;100.00
10646;BME280;5371;49.782;9.932;2023-01-15T13:13:50;98708.59;;;4.25;100.00
10646;BME280;5371;49.782;9.932;2023-01-15T13:16:32;98696.41;;;4.27;100.00
10646;BME280;5371;49.782;9.932;2023-01-15T13:19:16;98701.91;;;4.55;100.00
10646;BME280;5371;49.782;9.932;2023-01-15T13:21:46;98715.91;;;4.51;100.00
10646;BME280;5371;49.782;9.932;2023-01-15T13:27:33;98716.34;;;4.25;100.00
10646;BME280;5371;49.782;9.932;2023-01-15T13:30:14;98715.91;;;4.51;100.00
10646;BME280;5371;49.782;9.932;2023-01-15T13:32:46;98721.47;;;4.43;100.00
10646;BME280;5371;49.782;9.932;2023-01-15T13:35:21;98728.06;;;4.49;100.00
10646;BME280;5371;49.782;9.932;2023-01-15T13:37:52;98726.41;;;4.48;100.00
10646;BME280;5371;49.782;9.932;2023-01-15T13:40:24;98728.97;;;4.31;100.00